createdAt,value
2023-03-16T00:00:49.222Z,32.42
2023-03-16T00:06:00.337Z,32.92
2023-03-16T00:11:07.815Z,35.20
2023-03-16T00:16:17.492Z,44.25
2023-03-16T00:21:25.209Z,40.55
2023-03-16T00:26:32.087Z,36.22
2023-03-16T00:31:38.512Z,38.88
2023-03-16T00:36:46.409Z,32.40
2023-03-16T00:41:52.555Z,31.23
2023-03-16T00:46:59.059Z,34.67
2023-03-16T00:52:08.867Z,26.13
2023-03-16T00:57:19.108Z,31.98
2023-03-16T01:02:28.148Z,27.13
2023-03-16T01:07:36.664Z,26.98
2023-03-16T01:12:45.585Z,27.40
2023-03-16T01:17:52.580Z,26.80
2023-03-16T01:23:00.946Z,26.38
2023-03-16T01:28:07.549Z,23.27
2023-03-16T01:33:14.073Z,26.13
2023-03-16T01:38:22.477Z,33.88
2023-03-16T01:43:33.621Z,25.85
2023-03-16T01:48:46.353Z,29.67
2023-03-16T01:53:59.176Z,17.58
2023-03-16T01:59:13.654Z,24.98
2023-03-16T02:04:48.512Z,24.00
2023-03-16T02:10:03.893Z,23.47
2023-03-16T02:15:12.340Z,27.40
2023-03-16T02:20:34.991Z,27.25
2023-03-16T02:25:51.987Z,23.70
2023-03-16T02:31:00.422Z,23.65
2023-03-16T02:36:07.809Z,23.27
2023-03-16T02:41:17.689Z,14.57
2023-03-16T02:46:36.130Z,23.33
2023-03-16T02:51:43.582Z,23.92
2023-03-16T02:56:50.982Z,12.73
2023-03-16T03:01:59.612Z,16.45
2023-03-16T03:07:06.544Z,18.73
2023-03-16T03:12:26.644Z,19.42
2023-03-16T03:17:37.805Z,20.33
2023-03-16T03:22:46.385Z,16.90
2023-03-16T03:27:55.541Z,20.92
2023-03-16T03:33:05.601Z,20.60
2023-03-16T03:38:11.975Z,23.65
2023-03-16T03:43:19.669Z,18.60
2023-03-16T03:48:30.485Z,18.13
2023-03-16T03:53:37.659Z,23.20
2023-03-16T03:59:16.222Z,21.48
2023-03-16T04:04:39.519Z,21.90
2023-03-16T04:10:07.858Z,24.90
2023-03-16T04:15:19.326Z,18.85
2023-03-16T04:20:38.593Z,23.93
2023-03-16T04:25:46.242Z,22.38
2023-03-16T04:30:56.511Z,22.20
2023-03-16T04:36:14.081Z,28.70
2023-03-16T04:41:21.158Z,27.23
2023-03-16T04:46:42.757Z,26.75
2023-03-16T04:51:52.247Z,29.85
2023-03-16T04:57:00.807Z,28.23
2023-03-16T05:02:26.503Z,31.73
2023-03-16T05:07:42.371Z,29.88
2023-03-16T05:12:49.691Z,23.73
2023-03-16T05:17:57.663Z,27.67
2023-03-16T05:23:09.001Z,26.35
2023-03-16T05:28:22.685Z,22.88
2023-03-16T05:33:38.980Z,24.30
2023-03-16T05:38:53.909Z,23.40
2023-03-16T05:44:12.173Z,27.77
2023-03-16T05:49:44.322Z,26.40
2023-03-16T05:55:02.265Z,21.73
2023-03-16T06:00:14.984Z,29.97
2023-03-16T06:05:28.797Z,25.00
2023-03-16T06:10:37.205Z,24.90
2023-03-16T06:15:44.518Z,25.67
2023-03-16T06:20:53.063Z,23.90
2023-03-16T06:26:02.906Z,22.95
2023-03-16T06:31:11.675Z,25.52
2023-03-16T06:36:23.162Z,29.83
2023-03-16T06:41:36.110Z,27.45
2023-03-16T06:51:49.033Z,21.42
2023-03-16T06:56:57.455Z,28.00
2023-03-16T07:17:23.268Z,22.70
2023-03-16T07:22:32.937Z,25.75
2023-03-16T07:27:41.776Z,23.83
2023-03-16T07:32:51.489Z,23.27
2023-03-16T07:38:00.651Z,22.20
2023-03-16T07:43:07.517Z,23.55
2023-03-16T07:48:20.715Z,24.10
2023-03-16T07:53:40.332Z,22.52
2023-03-16T07:58:58.738Z,24.13
2023-03-16T08:04:08.883Z,23.88
2023-03-16T08:09:15.713Z,39.42
2023-03-16T08:14:24.097Z,19.27
2023-03-16T08:19:46.442Z,24.38
2023-03-16T08:24:52.983Z,23.25
2023-03-16T08:30:05.969Z,13.38
2023-03-16T08:35:18.237Z,16.27
2023-03-16T08:40:29.676Z,28.80
2023-03-16T08:45:39.312Z,14.50
2023-03-16T08:50:48.056Z,13.20
2023-03-16T08:55:54.953Z,56.67
2023-03-16T09:01:02.186Z,18.33
2023-03-16T09:06:13.652Z,20.30
2023-03-16T09:11:23.696Z,14.10
2023-03-16T09:16:31.383Z,12.02
2023-03-16T09:21:40.033Z,14.00
2023-03-16T09:26:46.302Z,11.88
2023-03-16T09:31:53.519Z,12.60
2023-03-16T09:37:03.057Z,8.18
2023-03-16T09:42:19.636Z,8.02
2023-03-16T09:47:31.615Z,10.98
2023-03-16T09:52:48.972Z,18.05
2023-03-16T09:57:56.532Z,11.18
2023-03-16T10:03:19.703Z,9.13
2023-03-16T10:08:33.271Z,15.57
2023-03-16T10:13:49.491Z,10.43
2023-03-16T10:19:03.970Z,12.27
2023-03-16T10:24:25.922Z,14.43
2023-03-16T10:29:37.330Z,10.90
2023-03-16T10:34:47.127Z,11.35
2023-03-16T10:39:56.701Z,9.90
2023-03-16T10:45:03.772Z,12.50
2023-03-16T10:50:21.279Z,17.30
2023-03-16T10:55:32.874Z,17.13
2023-03-16T11:00:45.986Z,16.95
2023-03-16T11:06:02.760Z,13.40
2023-03-16T11:11:17.967Z,15.30
2023-03-16T11:16:30.912Z,10.18
2023-03-16T11:21:49.912Z,13.98
2023-03-16T11:27:01.473Z,13.18
2023-03-16T11:32:15.241Z,14.40
2023-03-16T11:37:41.091Z,10.25
2023-03-16T11:43:02.598Z,9.40
2023-03-16T11:48:36.857Z,11.88
2023-03-16T12:08:00.973Z,10.00
2023-03-16T12:13:37.845Z,8.25
2023-03-16T12:18:49.331Z,11.73
2023-03-16T12:24:03.450Z,8.43
2023-03-16T12:29:21.296Z,7.28
2023-03-16T12:34:34.872Z,11.95
2023-03-16T12:40:08.175Z,8.32
2023-03-16T12:45:26.247Z,6.47
2023-03-16T12:50:33.660Z,7.87
2023-03-16T12:55:47.143Z,4.20
2023-03-16T13:01:01.376Z,9.90
2023-03-16T13:06:10.030Z,5.00
2023-03-16T13:11:18.253Z,7.38
2023-03-16T13:16:31.077Z,7.47
2023-03-16T13:21:41.509Z,28.40
2023-03-16T13:26:52.490Z,8.98
2023-03-16T13:32:02.153Z,8.52
2023-03-16T13:37:18.341Z,3.53
2023-03-16T13:42:28.741Z,5.57
2023-03-16T13:47:35.306Z,7.70
2023-03-16T13:52:44.494Z,7.72
2023-03-16T13:57:52.699Z,6.82
2023-03-16T14:03:04.636Z,5.75
2023-03-16T14:08:19.923Z,8.32
2023-03-16T14:13:38.606Z,7.25
2023-03-16T14:18:48.547Z,6.63
2023-03-16T14:23:58.678Z,4.15
2023-03-16T14:29:13.586Z,9.73
2023-03-16T14:34:32.642Z,11.88
2023-03-16T14:39:40.790Z,6.60
2023-03-16T14:44:50.094Z,4.57
2023-03-16T14:49:59.364Z,10.00
2023-03-16T15:00:23.655Z,6.07
2023-03-16T15:05:37.256Z,5.38
2023-03-16T15:10:44.528Z,6.97
2023-03-16T15:15:52.956Z,5.07
2023-03-16T15:59:00.731Z,6.13
2023-03-16T16:04:14.838Z,6.70
2023-03-16T16:09:23.447Z,9.30
2023-03-16T16:14:30.380Z,5.67
2023-03-16T16:19:37.017Z,6.68
2023-03-16T16:24:45.867Z,5.25
2023-03-16T16:29:52.527Z,6.47
2023-03-16T16:35:04.572Z,5.80
2023-03-16T16:40:19.395Z,7.32
2023-03-16T16:45:30.296Z,4.88
2023-03-16T16:50:37.900Z,9.15
2023-03-16T16:55:46.203Z,6.30
2023-03-16T17:00:58.303Z,3.83
2023-03-16T17:06:05.294Z,7.90
2023-03-16T17:11:23.495Z,13.45
2023-03-16T17:16:34.206Z,10.80
2023-03-16T17:21:42.462Z,14.63
2023-03-16T17:26:54.650Z,15.18
2023-03-16T17:32:06.917Z,13.77
2023-03-16T17:37:21.796Z,11.98
2023-03-16T17:42:31.101Z,12.68
2023-03-16T17:47:41.160Z,13.07
2023-03-16T17:52:50.858Z,12.55
2023-03-16T17:58:03.614Z,12.98
2023-03-16T18:03:19.426Z,11.65
2023-03-16T18:08:30.125Z,11.75
2023-03-16T18:13:42.904Z,11.32
2023-03-16T18:18:54.006Z,11.18
2023-03-16T18:24:04.096Z,9.88
2023-03-16T18:29:15.796Z,9.43
2023-03-16T18:34:30.550Z,11.45
2023-03-16T18:39:42.544Z,14.60
2023-03-16T18:44:57.527Z,11.15
2023-03-16T18:50:11.715Z,10.73
2023-03-16T18:55:24.794Z,22.08
2023-03-16T19:06:04.674Z,27.02
2023-03-16T19:11:15.335Z,40.80
2023-03-16T19:16:29.219Z,30.48
2023-03-16T19:21:41.317Z,31.50
2023-03-16T19:26:51.671Z,27.55
2023-03-16T19:32:04.267Z,27.65
2023-03-16T19:37:17.531Z,21.27
2023-03-16T19:42:37.644Z,19.02
2023-03-16T19:47:48.749Z,20.25
2023-03-16T19:53:02.571Z,22.20
2023-03-16T19:58:28.089Z,21.17
2023-03-16T20:03:45.222Z,16.10
2023-03-16T20:08:56.933Z,18.90
2023-03-16T20:14:07.092Z,18.77
2023-03-16T20:19:21.627Z,17.33
2023-03-16T20:24:38.983Z,17.05
2023-03-16T20:29:50.989Z,28.33
2023-03-16T20:35:06.662Z,25.85
2023-03-16T20:40:16.873Z,29.77
2023-03-16T20:45:32.032Z,18.67
2023-03-16T20:50:42.950Z,20.33
2023-03-16T20:55:55.214Z,19.38
2023-03-16T21:01:09.075Z,60.72
2023-03-16T21:06:26.163Z,57.67
2023-03-16T21:11:38.150Z,15.73
2023-03-16T21:16:45.447Z,83.15
2023-03-16T21:22:01.859Z,23.93
2023-03-16T21:27:09.860Z,57.55
2023-03-16T21:32:23.794Z,64.45
2023-03-16T21:37:32.485Z,127.68
2023-03-16T21:42:39.717Z,125.47
2023-03-16T21:47:47.914Z,65.10
2023-03-16T21:52:56.156Z,55.03
2023-03-16T21:58:03.434Z,64.60
2023-03-16T22:03:37.850Z,96.13
2023-03-16T22:08:55.977Z,96.32
2023-03-16T22:14:02.792Z,174.57
2023-03-16T22:19:13.753Z,167.30
2023-03-16T22:24:24.287Z,165.15
2023-03-16T22:29:36.849Z,165.70
2023-03-16T22:34:48.035Z,167.85
2023-03-16T22:39:57.760Z,138.63
2023-03-16T22:45:05.941Z,112.80
2023-03-16T22:50:17.062Z,121.57
2023-03-16T22:55:29.383Z,126.68
2023-03-16T23:00:38.455Z,119.50
2023-03-16T23:05:45.349Z,136.65
2023-03-16T23:10:54.774Z,121.55
2023-03-16T23:16:01.089Z,101.10
2023-03-16T23:21:07.768Z,111.68
2023-03-16T23:26:21.084Z,125.07
2023-03-16T23:31:28.337Z,111.05
2023-03-16T23:36:34.549Z,103.45
2023-03-16T23:41:46.656Z,89.80
2023-03-16T23:46:53.296Z,112.55
2023-03-16T23:52:02.504Z,105.40
2023-03-16T23:57:11.502Z,96.68
